sensor_id;sensor_type;location;lat;lon;timestamp;P1;durP1;ratioP1;P2;durP2;ratioP2
12367;SDS011;6248;49.812;6.620;2023-08-24T00:01:37;4.28;;;2.80;;
12367;SDS011;6248;49.812;6.620;2023-08-24T00:04:05;3.22;;;2.60;;
12367;SDS011;6248;49.812;6.620;2023-08-24T00:06:33;3.13;;;2.40;;
12367;SDS011;6248;49.812;6.620;2023-08-24T00:09:01;2.92;;;2.50;;
12367;SDS011;6248;49.812;6.620;2023-08-24T00:11:30;3.50;;;2.40;;
12367;SDS011;6248;49.812;6.620;2023-08-24T00:13:57;2.90;;;2.40;;
12367;SDS011;6248;49.812;6.620;2023-08-24T00:16:24;3.92;;;2.40;;
12367;SDS011;6248;49.812;6.620;2023-08-24T00:18:51;4.78;;;2.50;;
12367;SDS011;6248;49.812;6.620;2023-08-24T00:21:20;2.33;;;2.13;;
12367;SDS011;6248;49.812;6.620;2023-08-24T00:23:48;4.25;;;2.83;;
12367;SDS011;6248;49.812;6.620;2023-08-24T00:26:16;3.95;;;2.67;;
12367;SDS011;6248;49.812;6.620;2023-08-24T00:28:43;2.78;;;2.25;;
12367;SDS011;6248;49.812;6.620;2023-08-24T00:31:10;2.88;;;2.58;;
12367;SDS011;6248;49.812;6.620;2023-08-24T00:33:37;5.88;;;2.53;;
12367;SDS011;6248;49.812;6.620;2023-08-24T00:36:05;3.90;;;2.38;;
12367;SDS011;6248;49.812;6.620;2023-08-24T00:38:34;2.90;;;2.58;;
12367;SDS011;6248;49.812;6.620;2023-08-24T00:41:01;3.28;;;2.45;;
12367;SDS011;6248;49.812;6.620;2023-08-24T00:43:30;4.65;;;2.50;;
12367;SDS011;6248;49.812;6.620;2023-08-24T00:45:59;2.80;;;2.45;;
12367;SDS011;6248;49.812;6.620;2023-08-24T00:48:26;4.22;;;2.40;;
12367;SDS011;6248;49.812;6.620;2023-08-24T00:50:54;4.38;;;2.80;;
12367;SDS011;6248;49.812;6.620;2023-08-24T00:53:21;3.45;;;2.70;;
12367;SDS011;6248;49.812;6.620;2023-08-24T00:55:52;3.30;;;2.35;;
12367;SDS011;6248;49.812;6.620;2023-08-24T00:58:20;3.05;;;2.20;;
12367;SDS011;6248;49.812;6.620;2023-08-24T01:00:47;2.90;;;2.45;;
12367;SDS011;6248;49.812;6.620;2023-08-24T01:03:14;4.18;;;2.70;;
12367;SDS011;6248;49.812;6.620;2023-08-24T01:05:42;4.40;;;2.30;;
12367;SDS011;6248;49.812;6.620;2023-08-24T01:08:10;3.40;;;2.35;;
12367;SDS011;6248;49.812;6.620;2023-08-24T01:10:38;3.55;;;2.65;;
12367;SDS011;6248;49.812;6.620;2023-08-24T01:13:09;3.85;;;2.55;;
12367;SDS011;6248;49.812;6.620;2023-08-24T01:15:38;3.60;;;2.65;;
12367;SDS011;6248;49.812;6.620;2023-08-24T01:18:08;2.92;;;2.60;;
12367;SDS011;6248;49.812;6.620;2023-08-24T01:20:38;4.03;;;2.33;;
12367;SDS011;6248;49.812;6.620;2023-08-24T01:23:10;3.10;;;2.58;;
12367;SDS011;6248;49.812;6.620;2023-08-24T01:25:42;4.07;;;2.40;;
12367;SDS011;6248;49.812;6.620;2023-08-24T01:28:14;4.65;;;2.70;;
12367;SDS011;6248;49.812;6.620;2023-08-24T01:30:41;4.80;;;2.78;;
12367;SDS011;6248;49.812;6.620;2023-08-24T01:33:10;5.53;;;2.50;;
12367;SDS011;6248;49.812;6.620;2023-08-24T01:35:38;3.25;;;2.20;;
12367;SDS011;6248;49.812;6.620;2023-08-24T01:38:05;3.50;;;2.70;;
12367;SDS011;6248;49.812;6.620;2023-08-24T01:40:39;5.03;;;2.60;;
12367;SDS011;6248;49.812;6.620;2023-08-24T01:43:10;4.15;;;2.38;;
12367;SDS011;6248;49.812;6.620;2023-08-24T01:45:41;7.72;;;2.60;;
12367;SDS011;6248;49.812;6.620;2023-08-24T01:48:09;4.60;;;2.55;;
12367;SDS011;6248;49.812;6.620;2023-08-24T01:50:36;3.45;;;2.50;;
12367;SDS011;6248;49.812;6.620;2023-08-24T01:53:03;5.03;;;2.42;;
12367;SDS011;6248;49.812;6.620;2023-08-24T01:55:31;5.13;;;2.60;;
12367;SDS011;6248;49.812;6.620;2023-08-24T01:57:58;4.50;;;2.45;;
12367;SDS011;6248;49.812;6.620;2023-08-24T02:00:25;3.28;;;2.60;;
12367;SDS011;6248;49.812;6.620;2023-08-24T02:02:54;3.58;;;2.35;;
12367;SDS011;6248;49.812;6.620;2023-08-24T02:05:22;2.55;;;2.33;;
12367;SDS011;6248;49.812;6.620;2023-08-24T02:07:52;3.47;;;2.67;;
12367;SDS011;6248;49.812;6.620;2023-08-24T02:10:20;6.07;;;2.47;;
12367;SDS011;6248;49.812;6.620;2023-08-24T02:12:47;5.05;;;2.60;;
12367;SDS011;6248;49.812;6.620;2023-08-24T02:15:14;3.33;;;2.70;;
12367;SDS011;6248;49.812;6.620;2023-08-24T02:17:41;4.22;;;2.40;;
12367;SDS011;6248;49.812;6.620;2023-08-24T02:20:11;4.25;;;2.50;;
12367;SDS011;6248;49.812;6.620;2023-08-24T02:22:38;2.97;;;2.30;;
12367;SDS011;6248;49.812;6.620;2023-08-24T02:25:06;3.63;;;2.65;;
12367;SDS011;6248;49.812;6.620;2023-08-24T02:27:33;4.10;;;2.85;;
12367;SDS011;6248;49.812;6.620;2023-08-24T02:30:00;3.92;;;2.90;;
12367;SDS011;6248;49.812;6.620;2023-08-24T02:32:28;3.55;;;2.50;;
12367;SDS011;6248;49.812;6.620;2023-08-24T02:34:55;3.63;;;2.70;;
12367;SDS011;6248;49.812;6.620;2023-08-24T02:37:23;3.33;;;2.55;;
12367;SDS011;6248;49.812;6.620;2023-08-24T02:39:50;2.58;;;2.38;;
12367;SDS011;6248;49.812;6.620;2023-08-24T02:42:18;4.38;;;2.47;;
12367;SDS011;6248;49.812;6.620;2023-08-24T02:44:45;3.95;;;2.60;;
12367;SDS011;6248;49.812;6.620;2023-08-24T02:47:12;4.35;;;2.63;;
12367;SDS011;6248;49.812;6.620;2023-08-24T02:49:40;3.92;;;2.65;;
12367;SDS011;6248;49.812;6.620;2023-08-24T02:52:07;6.88;;;2.72;;
12367;SDS011;6248;49.812;6.620;2023-08-24T02:54:36;6.07;;;2.67;;
12367;SDS011;6248;49.812;6.620;2023-08-24T02:57:03;3.53;;;2.58;;
12367;SDS011;6248;49.812;6.620;2023-08-24T02:59:30;4.68;;;2.40;;
12367;SDS011;6248;49.812;6.620;2023-08-24T03:01:57;7.25;;;2.60;;
12367;SDS011;6248;49.812;6.620;2023-08-24T03:04:24;7.20;;;2.55;;
12367;SDS011;6248;49.812;6.620;2023-08-24T03:06:52;6.18;;;2.70;;
12367;SDS011;6248;49.812;6.620;2023-08-24T03:09:19;6.70;;;2.92;;
12367;SDS011;6248;49.812;6.620;2023-08-24T03:11:47;3.03;;;2.55;;
12367;SDS011;6248;49.812;6.620;2023-08-24T03:14:15;3.92;;;2.60;;
12367;SDS011;6248;49.812;6.620;2023-08-24T03:16:43;2.83;;;2.63;;
12367;SDS011;6248;49.812;6.620;2023-08-24T03:19:10;5.50;;;2.63;;
12367;SDS011;6248;49.812;6.620;2023-08-24T03:21:39;4.45;;;2.58;;
12367;SDS011;6248;49.812;6.620;2023-08-24T03:24:06;4.78;;;2.75;;
12367;SDS011;6248;49.812;6.620;2023-08-24T03:26:34;4.60;;;2.60;;
12367;SDS011;6248;49.812;6.620;2023-08-24T03:29:02;3.58;;;2.67;;
12367;SDS011;6248;49.812;6.620;2023-08-24T03:31:30;4.70;;;2.92;;
12367;SDS011;6248;49.812;6.620;2023-08-24T03:33:57;4.57;;;2.85;;
12367;SDS011;6248;49.812;6.620;2023-08-24T03:36:24;4.88;;;3.10;;
12367;SDS011;6248;49.812;6.620;2023-08-24T03:38:52;3.00;;;2.50;;
12367;SDS011;6248;49.812;6.620;2023-08-24T03:41:19;4.60;;;2.35;;
12367;SDS011;6248;49.812;6.620;2023-08-24T03:43:46;5.03;;;2.60;;
12367;SDS011;6248;49.812;6.620;2023-08-24T03:46:15;4.65;;;2.65;;
12367;SDS011;6248;49.812;6.620;2023-08-24T03:48:42;4.85;;;2.60;;
12367;SDS011;6248;49.812;6.620;2023-08-24T03:51:09;3.67;;;2.55;;
12367;SDS011;6248;49.812;6.620;2023-08-24T03:53:36;4.95;;;2.60;;
12367;SDS011;6248;49.812;6.620;2023-08-24T03:56:04;4.32;;;2.65;;
12367;SDS011;6248;49.812;6.620;2023-08-24T03:58:31;4.28;;;2.42;;
12367;SDS011;6248;49.812;6.620;2023-08-24T04:00:58;3.85;;;2.75;;
12367;SDS011;6248;49.812;6.620;2023-08-24T04:03:27;4.57;;;2.40;;
12367;SDS011;6248;49.812;6.620;2023-08-24T04:05:54;4.78;;;2.20;;
12367;SDS011;6248;49.812;6.620;2023-08-24T04:08:21;4.35;;;2.40;;
12367;SDS011;6248;49.812;6.620;2023-08-24T04:10:48;2.50;;;2.30;;
12367;SDS011;6248;49.812;6.620;2023-08-24T04:13:15;3.20;;;2.33;;
12367;SDS011;6248;49.812;6.620;2023-08-24T04:15:43;3.95;;;2.50;;
12367;SDS011;6248;49.812;6.620;2023-08-24T04:18:10;2.72;;;2.30;;
12367;SDS011;6248;49.812;6.620;2023-08-24T04:20:38;2.70;;;2.10;;
12367;SDS011;6248;49.812;6.620;2023-08-24T04:23:05;4.22;;;2.50;;
12367;SDS011;6248;49.812;6.620;2023-08-24T04:25:33;3.60;;;2.60;;
12367;SDS011;6248;49.812;6.620;2023-08-24T04:28:00;3.45;;;2.50;;
12367;SDS011;6248;49.812;6.620;2023-08-24T04:30:27;2.80;;;2.38;;
12367;SDS011;6248;49.812;6.620;2023-08-24T04:32:54;3.55;;;2.50;;
12367;SDS011;6248;49.812;6.620;2023-08-24T04:35:24;3.42;;;2.65;;
12367;SDS011;6248;49.812;6.620;2023-08-24T04:37:53;4.00;;;2.63;;
12367;SDS011;6248;49.812;6.620;2023-08-24T04:40:20;3.25;;;2.58;;
12367;SDS011;6248;49.812;6.620;2023-08-24T04:42:47;3.97;;;2.38;;
12367;SDS011;6248;49.812;6.620;2023-08-24T04:45:15;3.80;;;2.55;;
12367;SDS011;6248;49.812;6.620;2023-08-24T04:47:42;2.40;;;2.20;;
12367;SDS011;6248;49.812;6.620;2023-08-24T04:50:09;4.53;;;2.50;;
12367;SDS011;6248;49.812;6.620;2023-08-24T04:52:36;3.00;;;2.53;;
12367;SDS011;6248;49.812;6.620;2023-08-24T04:55:05;4.93;;;2.28;;
12367;SDS011;6248;49.812;6.620;2023-08-24T04:57:33;4.30;;;2.58;;
12367;SDS011;6248;49.812;6.620;2023-08-24T05:00:00;3.35;;;2.80;;
12367;SDS011;6248;49.812;6.620;2023-08-24T05:02:30;6.18;;;2.80;;
12367;SDS011;6248;49.812;6.620;2023-08-24T05:04:57;8.23;;;2.97;;
12367;SDS011;6248;49.812;6.620;2023-08-24T05:07:24;4.28;;;2.70;;
12367;SDS011;6248;49.812;6.620;2023-08-24T05:09:53;5.20;;;3.20;;
12367;SDS011;6248;49.812;6.620;2023-08-24T05:12:22;4.50;;;2.70;;
12367;SDS011;6248;49.812;6.620;2023-08-24T05:14:49;2.45;;;2.30;;
12367;SDS011;6248;49.812;6.620;2023-08-24T05:17:16;4.32;;;2.60;;
12367;SDS011;6248;49.812;6.620;2023-08-24T05:19:45;3.33;;;2.35;;
12367;SDS011;6248;49.812;6.620;2023-08-24T05:22:12;3.00;;;2.40;;
12367;SDS011;6248;49.812;6.620;2023-08-24T05:24:39;4.00;;;2.60;;
12367;SDS011;6248;49.812;6.620;2023-08-24T05:27:06;4.78;;;2.53;;
12367;SDS011;6248;49.812;6.620;2023-08-24T05:29:35;5.07;;;2.47;;
12367;SDS011;6248;49.812;6.620;2023-08-24T05:32:02;2.90;;;2.42;;
12367;SDS011;6248;49.812;6.620;2023-08-24T05:34:29;2.80;;;2.60;;
12367;SDS011;6248;49.812;6.620;2023-08-24T05:36:57;2.70;;;2.50;;
12367;SDS011;6248;49.812;6.620;2023-08-24T05:39:24;3.90;;;2.60;;
12367;SDS011;6248;49.812;6.620;2023-08-24T05:41:51;3.55;;;2.58;;
12367;SDS011;6248;49.812;6.620;2023-08-24T05:44:18;3.75;;;2.40;;
12367;SDS011;6248;49.812;6.620;2023-08-24T05:46:47;4.85;;;2.75;;
12367;SDS011;6248;49.812;6.620;2023-08-24T05:49:14;6.50;;;3.50;;
12367;SDS011;6248;49.812;6.620;2023-08-24T05:51:42;4.40;;;2.85;;
12367;SDS011;6248;49.812;6.620;2023-08-24T05:54:09;4.18;;;2.72;;
12367;SDS011;6248;49.812;6.620;2023-08-24T05:56:38;3.50;;;2.70;;
12367;SDS011;6248;49.812;6.620;2023-08-24T05:59:05;3.97;;;2.60;;
12367;SDS011;6248;49.812;6.620;2023-08-24T06:01:32;3.50;;;2.55;;
12367;SDS011;6248;49.812;6.620;2023-08-24T06:04:04;2.70;;;2.50;;
12367;SDS011;6248;49.812;6.620;2023-08-24T06:06:32;3.13;;;2.35;;
12367;SDS011;6248;49.812;6.620;2023-08-24T06:08:59;4.35;;;2.47;;
12367;SDS011;6248;49.812;6.620;2023-08-24T06:11:26;5.55;;;2.75;;
12367;SDS011;6248;49.812;6.620;2023-08-24T06:13:53;4.53;;;2.60;;
12367;SDS011;6248;49.812;6.620;2023-08-24T06:16:20;5.07;;;2.90;;
12367;SDS011;6248;49.812;6.620;2023-08-24T06:18:47;2.97;;;2.67;;
12367;SDS011;6248;49.812;6.620;2023-08-24T06:21:16;4.68;;;3.40;;
12367;SDS011;6248;49.812;6.620;2023-08-24T06:23:43;6.65;;;2.58;;
12367;SDS011;6248;49.812;6.620;2023-08-24T06:26:12;2.97;;;2.70;;
12367;SDS011;6248;49.812;6.620;2023-08-24T06:28:39;5.18;;;2.95;;
12367;SDS011;6248;49.812;6.620;2023-08-24T06:31:06;3.13;;;2.70;;
12367;SDS011;6248;49.812;6.620;2023-08-24T06:33:34;4.43;;;3.10;;
12367;SDS011;6248;49.812;6.620;2023-08-24T06:36:01;3.70;;;2.97;;
12367;SDS011;6248;49.812;6.620;2023-08-24T06:38:31;6.43;;;2.90;;
12367;SDS011;6248;49.812;6.620;2023-08-24T06:40:58;3.50;;;3.20;;
12367;SDS011;6248;49.812;6.620;2023-08-24T06:43:26;3.80;;;2.63;;
12367;SDS011;6248;49.812;6.620;2023-08-24T06:45:54;3.97;;;3.20;;
12367;SDS011;6248;49.812;6.620;2023-08-24T06:48:21;4.43;;;3.00;;
12367;SDS011;6248;49.812;6.620;2023-08-24T06:50:48;5.68;;;3.25;;
12367;SDS011;6248;49.812;6.620;2023-08-24T06:53:15;3.97;;;3.30;;
12367;SDS011;6248;49.812;6.620;2023-08-24T06:55:44;6.38;;;3.45;;
12367;SDS011;6248;49.812;6.620;2023-08-24T06:58:11;3.72;;;3.05;;
12367;SDS011;6248;49.812;6.620;2023-08-24T07:00:38;4.43;;;3.50;;
12367;SDS011;6248;49.812;6.620;2023-08-24T07:03:05;3.60;;;2.85;;
12367;SDS011;6248;49.812;6.620;2023-08-24T07:05:33;4.63;;;2.78;;
12367;SDS011;6248;49.812;6.620;2023-08-24T07:08:00;5.15;;;3.28;;
12367;SDS011;6248;49.812;6.620;2023-08-24T07:10:28;5.45;;;3.70;;
12367;SDS011;6248;49.812;6.620;2023-08-24T07:12:56;11.10;;;4.88;;
12367;SDS011;6248;49.812;6.620;2023-08-24T07:15:23;11.07;;;5.32;;
12367;SDS011;6248;49.812;6.620;2023-08-24T07:17:51;12.18;;;6.00;;
12367;SDS011;6248;49.812;6.620;2023-08-24T07:20:18;12.43;;;4.60;;
12367;SDS011;6248;49.812;6.620;2023-08-24T07:22:45;5.13;;;3.65;;
12367;SDS011;6248;49.812;6.620;2023-08-24T07:25:13;6.40;;;4.15;;
12367;SDS011;6248;49.812;6.620;2023-08-24T07:27:40;5.10;;;3.55;;
12367;SDS011;6248;49.812;6.620;2023-08-24T07:30:09;3.90;;;3.35;;
12367;SDS011;6248;49.812;6.620;2023-08-24T07:32:37;3.65;;;3.17;;
12367;SDS011;6248;49.812;6.620;2023-08-24T07:35:04;5.30;;;3.38;;
12367;SDS011;6248;49.812;6.620;2023-08-24T07:37:32;3.30;;;2.90;;
12367;SDS011;6248;49.812;6.620;2023-08-24T07:39:59;5.38;;;3.17;;
12367;SDS011;6248;49.812;6.620;2023-08-24T07:42:26;4.82;;;3.40;;
12367;SDS011;6248;49.812;6.620;2023-08-24T07:44:53;8.25;;;3.80;;
12367;SDS011;6248;49.812;6.620;2023-08-24T07:47:22;4.82;;;3.15;;
12367;SDS011;6248;49.812;6.620;2023-08-24T07:49:49;3.58;;;3.03;;
12367;SDS011;6248;49.812;6.620;2023-08-24T07:52:16;3.92;;;3.30;;
12367;SDS011;6248;49.812;6.620;2023-08-24T07:54:43;5.85;;;3.20;;
12367;SDS011;6248;49.812;6.620;2023-08-24T07:57:11;4.18;;;3.20;;
12367;SDS011;6248;49.812;6.620;2023-08-24T07:59:38;4.88;;;3.25;;
12367;SDS011;6248;49.812;6.620;2023-08-24T08:02:05;4.47;;;3.10;;
12367;SDS011;6248;49.812;6.620;2023-08-24T08:04:34;3.88;;;3.00;;
12367;SDS011;6248;49.812;6.620;2023-08-24T08:07:01;3.00;;;2.67;;
12367;SDS011;6248;49.812;6.620;2023-08-24T08:09:29;3.25;;;2.85;;
12367;SDS011;6248;49.812;6.620;2023-08-24T08:11:56;3.40;;;2.70;;
12367;SDS011;6248;49.812;6.620;2023-08-24T08:14:23;3.05;;;2.75;;
12367;SDS011;6248;49.812;6.620;2023-08-24T08:16:50;4.15;;;2.85;;
12367;SDS011;6248;49.812;6.620;2023-08-24T08:19:17;6.05;;;3.30;;
12367;SDS011;6248;49.812;6.620;2023-08-24T08:21:48;5.20;;;2.90;;
12367;SDS011;6248;49.812;6.620;2023-08-24T08:24:15;4.22;;;3.22;;
12367;SDS011;6248;49.812;6.620;2023-08-24T08:26:42;5.13;;;2.85;;
12367;SDS011;6248;49.812;6.620;2023-08-24T08:29:09;3.78;;;2.80;;
12367;SDS011;6248;49.812;6.620;2023-08-24T08:31:36;3.90;;;3.20;;
12367;SDS011;6248;49.812;6.620;2023-08-24T08:34:03;4.88;;;2.72;;
12367;SDS011;6248;49.812;6.620;2023-08-24T08:36:30;4.05;;;2.97;;
12367;SDS011;6248;49.812;6.620;2023-08-24T08:38:59;5.32;;;2.55;;
12367;SDS011;6248;49.812;6.620;2023-08-24T08:41:30;4.50;;;2.60;;
12367;SDS011;6248;49.812;6.620;2023-08-24T08:43:58;3.13;;;2.80;;
12367;SDS011;6248;49.812;6.620;2023-08-24T08:46:26;3.25;;;2.85;;
12367;SDS011;6248;49.812;6.620;2023-08-24T08:48:54;2.95;;;2.70;;
12367;SDS011;6248;49.812;6.620;2023-08-24T08:51:21;3.03;;;2.70;;
12367;SDS011;6248;49.812;6.620;2023-08-24T08:53:49;3.13;;;2.70;;
12367;SDS011;6248;49.812;6.620;2023-08-24T08:56:17;3.05;;;2.72;;
12367;SDS011;6248;49.812;6.620;2023-08-24T08:58:45;4.32;;;2.78;;
12367;SDS011;6248;49.812;6.620;2023-08-24T09:01:12;3.83;;;2.60;;
12367;SDS011;6248;49.812;6.620;2023-08-24T09:03:39;3.75;;;2.50;;
12367;SDS011;6248;49.812;6.620;2023-08-24T09:06:06;3.33;;;2.72;;
12367;SDS011;6248;49.812;6.620;2023-08-24T09:08:34;5.05;;;2.45;;
12367;SDS011;6248;49.812;6.620;2023-08-24T09:11:01;6.38;;;2.83;;
12367;SDS011;6248;49.812;6.620;2023-08-24T09:13:30;5.47;;;2.50;;
12367;SDS011;6248;49.812;6.620;2023-08-24T09:16:02;3.55;;;2.85;;
12367;SDS011;6248;49.812;6.620;2023-08-24T09:18:33;3.88;;;2.85;;
12367;SDS011;6248;49.812;6.620;2023-08-24T09:21:06;4.18;;;2.92;;
12367;SDS011;6248;49.812;6.620;2023-08-24T09:23:34;2.60;;;2.40;;
12367;SDS011;6248;49.812;6.620;2023-08-24T09:26:01;2.95;;;2.70;;
12367;SDS011;6248;49.812;6.620;2023-08-24T09:28:31;2.92;;;2.63;;
12367;SDS011;6248;49.812;6.620;2023-08-24T09:30:59;3.78;;;2.97;;
12367;SDS011;6248;49.812;6.620;2023-08-24T09:33:28;2.60;;;2.40;;
12367;SDS011;6248;49.812;6.620;2023-08-24T09:35:56;5.22;;;2.60;;
12367;SDS011;6248;49.812;6.620;2023-08-24T09:38:26;2.88;;;2.33;;
12367;SDS011;6248;49.812;6.620;2023-08-24T09:40:54;4.28;;;2.70;;
12367;SDS011;6248;49.812;6.620;2023-08-24T09:43:22;3.13;;;2.50;;
12367;SDS011;6248;49.812;6.620;2023-08-24T09:45:52;3.40;;;2.80;;
12367;SDS011;6248;49.812;6.620;2023-08-24T09:48:20;3.70;;;2.85;;
12367;SDS011;6248;49.812;6.620;2023-08-24T09:50:47;3.47;;;2.38;;
12367;SDS011;6248;49.812;6.620;2023-08-24T09:53:15;3.40;;;2.70;;
12367;SDS011;6248;49.812;6.620;2023-08-24T09:55:44;3.05;;;2.60;;
12367;SDS011;6248;49.812;6.620;2023-08-24T09:58:12;2.75;;;2.55;;
12367;SDS011;6248;49.812;6.620;2023-08-24T10:00:39;2.85;;;2.53;;
12367;SDS011;6248;49.812;6.620;2023-08-24T10:03:07;4.57;;;2.80;;
12367;SDS011;6248;49.812;6.620;2023-08-24T10:05:35;3.05;;;2.55;;
12367;SDS011;6248;49.812;6.620;2023-08-24T10:08:02;2.38;;;2.20;;
12367;SDS011;6248;49.812;6.620;2023-08-24T10:10:30;3.92;;;2.70;;
12367;SDS011;6248;49.812;6.620;2023-08-24T10:13:00;3.33;;;2.72;;
12367;SDS011;6248;49.812;6.620;2023-08-24T10:15:29;3.20;;;2.40;;
12367;SDS011;6248;49.812;6.620;2023-08-24T10:17:57;3.28;;;2.60;;
12367;SDS011;6248;49.812;6.620;2023-08-24T10:20:26;5.68;;;3.13;;
12367;SDS011;6248;49.812;6.620;2023-08-24T10:22:53;3.15;;;2.90;;
12367;SDS011;6248;49.812;6.620;2023-08-24T10:25:23;2.70;;;2.50;;
12367;SDS011;6248;49.812;6.620;2023-08-24T10:27:50;4.95;;;2.45;;
12367;SDS011;6248;49.812;6.620;2023-08-24T10:30:19;3.33;;;3.03;;
12367;SDS011;6248;49.812;6.620;2023-08-24T10:32:46;3.95;;;2.70;;
12367;SDS011;6248;49.812;6.620;2023-08-24T10:35:18;3.00;;;2.70;;
12367;SDS011;6248;49.812;6.620;2023-08-24T10:37:47;4.40;;;2.70;;
12367;SDS011;6248;49.812;6.620;2023-08-24T10:40:14;2.60;;;2.40;;
12367;SDS011;6248;49.812;6.620;2023-08-24T10:42:57;3.67;;;2.70;;
12367;SDS011;6248;49.812;6.620;2023-08-24T10:45:24;2.83;;;2.63;;
12367;SDS011;6248;49.812;6.620;2023-08-24T10:47:52;3.47;;;2.65;;
12367;SDS011;6248;49.812;6.620;2023-08-24T10:50:19;4.80;;;2.40;;
12367;SDS011;6248;49.812;6.620;2023-08-24T10:52:48;5.10;;;2.70;;
12367;SDS011;6248;49.812;6.620;2023-08-24T10:55:22;3.13;;;2.90;;
12367;SDS011;6248;49.812;6.620;2023-08-24T10:57:55;5.13;;;2.90;;
12367;SDS011;6248;49.812;6.620;2023-08-24T11:00:24;3.53;;;2.72;;
12367;SDS011;6248;49.812;6.620;2023-08-24T11:02:52;3.00;;;2.60;;
12367;SDS011;6248;49.812;6.620;2023-08-24T11:05:20;3.25;;;2.97;;
12367;SDS011;6248;49.812;6.620;2023-08-24T11:07:49;3.65;;;2.08;;
12367;SDS011;6248;49.812;6.620;2023-08-24T11:10:16;2.78;;;2.33;;
12367;SDS011;6248;49.812;6.620;2023-08-24T11:15:29;3.22;;;2.20;;
12367;SDS011;6248;49.812;6.620;2023-08-24T11:18:10;4.05;;;2.45;;
12367;SDS011;6248;49.812;6.620;2023-08-24T11:20:38;2.63;;;2.40;;
12367;SDS011;6248;49.812;6.620;2023-08-24T11:23:08;2.88;;;2.42;;
12367;SDS011;6248;49.812;6.620;2023-08-24T11:25:36;3.70;;;2.58;;
12367;SDS011;6248;49.812;6.620;2023-08-24T11:28:03;3.33;;;2.60;;
12367;SDS011;6248;49.812;6.620;2023-08-24T11:30:31;2.83;;;2.55;;
12367;SDS011;6248;49.812;6.620;2023-08-24T11:32:58;3.15;;;2.10;;
12367;SDS011;6248;49.812;6.620;2023-08-24T11:35:26;2.58;;;2.33;;
12367;SDS011;6248;49.812;6.620;2023-08-24T11:37:53;2.83;;;2.47;;
12367;SDS011;6248;49.812;6.620;2023-08-24T11:40:21;5.30;;;2.90;;
12367;SDS011;6248;49.812;6.620;2023-08-24T11:42:53;3.22;;;2.80;;
12367;SDS011;6248;49.812;6.620;2023-08-24T11:45:20;4.05;;;2.35;;
12367;SDS011;6248;49.812;6.620;2023-08-24T11:47:48;3.17;;;2.83;;
12367;SDS011;6248;49.812;6.620;2023-08-24T11:50:15;3.22;;;2.95;;
12367;SDS011;6248;49.812;6.620;2023-08-24T11:52:42;4.28;;;3.30;;
12367;SDS011;6248;49.812;6.620;2023-08-24T11:55:10;3.88;;;3.42;;
12367;SDS011;6248;49.812;6.620;2023-08-24T11:57:38;3.85;;;3.10;;
12367;SDS011;6248;49.812;6.620;2023-08-24T12:00:06;4.53;;;3.28;;
12367;SDS011;6248;49.812;6.620;2023-08-24T12:02:34;6.78;;;3.63;;
12367;SDS011;6248;49.812;6.620;2023-08-24T12:05:05;4.82;;;3.95;;
12367;SDS011;6248;49.812;6.620;2023-08-24T12:07:32;5.43;;;3.55;;
12367;SDS011;6248;49.812;6.620;2023-08-24T12:10:00;6.07;;;3.15;;
12367;SDS011;6248;49.812;6.620;2023-08-24T12:12:27;5.70;;;3.00;;
12367;SDS011;6248;49.812;6.620;2023-08-24T12:14:56;3.33;;;3.00;;
12367;SDS011;6248;49.812;6.620;2023-08-24T12:17:23;3.33;;;2.90;;
12367;SDS011;6248;49.812;6.620;2023-08-24T12:19:57;2.97;;;2.67;;
12367;SDS011;6248;49.812;6.620;2023-08-24T12:22:25;4.72;;;2.63;;
12367;SDS011;6248;49.812;6.620;2023-08-24T12:24:53;2.75;;;2.55;;
12367;SDS011;6248;49.812;6.620;2023-08-24T12:27:20;2.60;;;2.30;;
12367;SDS011;6248;49.812;6.620;2023-08-24T12:29:47;3.40;;;2.40;;
12367;SDS011;6248;49.812;6.620;2023-08-24T12:32:16;2.90;;;2.38;;
12367;SDS011;6248;49.812;6.620;2023-08-24T12:34:45;3.28;;;2.40;;
12367;SDS011;6248;49.812;6.620;2023-08-24T12:37:12;2.35;;;2.15;;
12367;SDS011;6248;49.812;6.620;2023-08-24T12:39:39;4.45;;;2.38;;
12367;SDS011;6248;49.812;6.620;2023-08-24T12:42:06;3.28;;;2.42;;
12367;SDS011;6248;49.812;6.620;2023-08-24T12:44:33;4.95;;;2.50;;
12367;SDS011;6248;49.812;6.620;2023-08-24T12:47:02;3.35;;;2.15;;
12367;SDS011;6248;49.812;6.620;2023-08-24T12:49:30;4.43;;;2.88;;
12367;SDS011;6248;49.812;6.620;2023-08-24T12:51:57;5.20;;;2.60;;
12367;SDS011;6248;49.812;6.620;2023-08-24T12:54:24;2.60;;;2.33;;
12367;SDS011;6248;49.812;6.620;2023-08-24T12:56:51;4.40;;;2.38;;
12367;SDS011;6248;49.812;6.620;2023-08-24T12:59:19;3.85;;;2.40;;
12367;SDS011;6248;49.812;6.620;2023-08-24T13:01:47;3.72;;;2.25;;
12367;SDS011;6248;49.812;6.620;2023-08-24T13:04:14;3.17;;;2.20;;
12367;SDS011;6248;49.812;6.620;2023-08-24T13:06:42;3.78;;;2.38;;
12367;SDS011;6248;49.812;6.620;2023-08-24T13:09:09;3.35;;;2.45;;
12367;SDS011;6248;49.812;6.620;2023-08-24T13:11:37;3.53;;;2.53;;
12367;SDS011;6248;49.812;6.620;2023-08-24T13:14:04;2.15;;;1.95;;
12367;SDS011;6248;49.812;6.620;2023-08-24T13:16:31;2.83;;;2.28;;
12367;SDS011;6248;49.812;6.620;2023-08-24T13:18:58;2.58;;;1.90;;
12367;SDS011;6248;49.812;6.620;2023-08-24T13:21:25;2.45;;;2.25;;
12367;SDS011;6248;49.812;6.620;2023-08-24T13:23:54;3.35;;;2.40;;
12367;SDS011;6248;49.812;6.620;2023-08-24T13:26:21;3.70;;;2.28;;
12367;SDS011;6248;49.812;6.620;2023-08-24T13:28:49;3.67;;;2.20;;
12367;SDS011;6248;49.812;6.620;2023-08-24T13:31:16;2.60;;;2.28;;
12367;SDS011;6248;49.812;6.620;2023-08-24T13:33:44;2.50;;;2.20;;
12367;SDS011;6248;49.812;6.620;2023-08-24T13:36:11;3.90;;;2.47;;
12367;SDS011;6248;49.812;6.620;2023-08-24T13:38:38;3.20;;;2.05;;
12367;SDS011;6248;49.812;6.620;2023-08-24T13:41:07;7.47;;;2.22;;
12367;SDS011;6248;49.812;6.620;2023-08-24T13:43:34;2.40;;;2.20;;
12367;SDS011;6248;49.812;6.620;2023-08-24T13:46:01;2.47;;;2.28;;
12367;SDS011;6248;49.812;6.620;2023-08-24T13:48:28;2.17;;;1.98;;
12367;SDS011;6248;49.812;6.620;2023-08-24T13:50:58;2.40;;;2.30;;
12367;SDS011;6248;49.812;6.620;2023-08-24T13:53:25;4.32;;;2.50;;
12367;SDS011;6248;49.812;6.620;2023-08-24T13:55:52;3.05;;;2.65;;
12367;SDS011;6248;49.812;6.620;2023-08-24T13:58:21;2.50;;;2.30;;
12367;SDS011;6248;49.812;6.620;2023-08-24T14:00:50;2.42;;;2.22;;
12367;SDS011;6248;49.812;6.620;2023-08-24T14:03:21;4.03;;;2.10;;
12367;SDS011;6248;49.812;6.620;2023-08-24T14:05:48;3.15;;;2.33;;
12367;SDS011;6248;49.812;6.620;2023-08-24T14:08:16;4.60;;;2.60;;
12367;SDS011;6248;49.812;6.620;2023-08-24T14:10:43;2.53;;;2.33;;
12367;SDS011;6248;49.812;6.620;2023-08-24T14:13:13;2.35;;;2.20;;
12367;SDS011;6248;49.812;6.620;2023-08-24T14:15:42;2.53;;;2.20;;
12367;SDS011;6248;49.812;6.620;2023-08-24T14:18:10;4.28;;;2.45;;
12367;SDS011;6248;49.812;6.620;2023-08-24T14:20:38;4.28;;;2.20;;
12367;SDS011;6248;49.812;6.620;2023-08-24T14:23:05;4.25;;;2.58;;
12367;SDS011;6248;49.812;6.620;2023-08-24T14:25:32;4.60;;;3.08;;
12367;SDS011;6248;49.812;6.620;2023-08-24T14:28:00;6.38;;;2.72;;
12367;SDS011;6248;49.812;6.620;2023-08-24T14:30:27;3.63;;;2.50;;
12367;SDS011;6248;49.812;6.620;2023-08-24T14:32:55;3.97;;;2.80;;
12367;SDS011;6248;49.812;6.620;2023-08-24T14:35:22;3.80;;;2.40;;
12367;SDS011;6248;49.812;6.620;2023-08-24T14:37:49;5.18;;;2.90;;
12367;SDS011;6248;49.812;6.620;2023-08-24T14:40:16;4.32;;;3.33;;
12367;SDS011;6248;49.812;6.620;2023-08-24T14:42:45;4.18;;;3.00;;
12367;SDS011;6248;49.812;6.620;2023-08-24T14:45:14;5.38;;;2.70;;
12367;SDS011;6248;49.812;6.620;2023-08-24T14:47:41;3.38;;;2.40;;
12367;SDS011;6248;49.812;6.620;2023-08-24T14:50:10;3.40;;;2.38;;
12367;SDS011;6248;49.812;6.620;2023-08-24T14:52:37;2.90;;;2.53;;
12367;SDS011;6248;49.812;6.620;2023-08-24T14:55:04;3.42;;;2.38;;
12367;SDS011;6248;49.812;6.620;2023-08-24T14:57:33;2.67;;;2.00;;
12367;SDS011;6248;49.812;6.620;2023-08-24T15:00:00;3.03;;;2.05;;
12367;SDS011;6248;49.812;6.620;2023-08-24T15:02:27;3.75;;;1.90;;
12367;SDS011;6248;49.812;6.620;2023-08-24T15:04:54;4.57;;;2.03;;
12367;SDS011;6248;49.812;6.620;2023-08-24T15:07:22;2.97;;;2.10;;